createdAt,value
2018-03-24T00:00:58.477Z,94.50
2018-03-24T00:03:01.084Z,94.50
2018-03-24T00:05:04.588Z,94.30
2018-03-24T00:07:07.241Z,94.20
2018-03-24T00:09:09.884Z,94.20
2018-03-24T00:11:12.580Z,94.10
2018-03-24T00:13:15.202Z,94.00
2018-03-24T00:15:17.878Z,94.10
2018-03-24T00:17:20.902Z,94.10
2018-03-24T00:19:23.628Z,93.90
2018-03-24T00:21:26.295Z,94.20
2018-03-24T00:23:29.693Z,94.10
2018-03-24T00:25:33.147Z,94.50
2018-03-24T00:27:35.764Z,94.50
2018-03-24T00:29:38.418Z,94.40
2018-03-24T00:31:41.049Z,94.70
2018-03-24T00:33:43.701Z,94.40
2018-03-24T00:35:46.345Z,94.60
2018-03-24T00:37:48.958Z,94.40
2018-03-24T00:39:51.677Z,94.30
2018-03-24T00:41:54.343Z,94.20
2018-03-24T00:43:56.987Z,94.30
2018-03-24T00:45:59.642Z,94.10
2018-03-24T00:48:03.018Z,94.30
2018-03-24T00:50:05.643Z,94.30
2018-03-24T00:52:08.310Z,94.20
2018-03-24T00:54:10.989Z,94.20
2018-03-24T00:56:13.615Z,94.40
2018-03-24T00:58:16.261Z,94.30
2018-03-24T01:00:18.910Z,94.20
2018-03-24T01:02:21.558Z,94.30
2018-03-24T01:04:24.242Z,94.30
2018-03-24T01:06:27.641Z,94.20
2018-03-24T01:08:31.050Z,94.10
2018-03-24T01:10:34.443Z,94.50
2018-03-24T01:12:37.127Z,94.20
2018-03-24T01:14:39.837Z,94.10
2018-03-24T01:16:42.462Z,94.10
2018-03-24T01:18:45.098Z,94.30
2018-03-24T01:20:47.746Z,94.20
2018-03-24T01:22:50.393Z,94.50
2018-03-24T01:24:53.055Z,94.50
2018-03-24T01:26:56.449Z,94.50
2018-03-24T01:28:59.966Z,94.50
2018-03-24T01:31:02.638Z,94.50
2018-03-24T01:33:05.261Z,94.30
2018-03-24T01:35:07.965Z,94.40
2018-03-24T01:37:11.380Z,94.70
2018-03-24T01:39:14.044Z,94.80
2018-03-24T01:41:17.715Z,94.90
2018-03-24T01:43:20.555Z,94.80
2018-03-24T01:45:23.277Z,94.80
2018-03-24T01:47:25.894Z,94.90
2018-03-24T01:49:28.568Z,95.10
2018-03-24T01:51:31.203Z,94.90
2018-03-24T01:53:45.718Z,94.80
2018-03-24T01:55:48.366Z,94.90
2018-03-24T01:57:51.011Z,95.10
2018-03-24T01:59:53.633Z,94.80
2018-03-24T02:01:56.245Z,94.60
2018-03-24T02:03:58.862Z,94.50
2018-03-24T02:06:02.233Z,94.50
2018-03-24T02:08:04.862Z,94.50
2018-03-24T02:10:07.549Z,94.30
2018-03-24T02:12:10.173Z,94.50
2018-03-24T02:14:13.586Z,93.90
2018-03-24T02:16:16.281Z,93.90
2018-03-24T02:18:18.950Z,93.50
2018-03-24T02:20:21.574Z,93.70
2018-03-24T02:22:24.231Z,93.40
2018-03-24T02:24:26.894Z,93.80
2018-03-24T02:26:30.287Z,93.70
2018-03-24T02:28:32.898Z,93.60
2018-03-24T02:30:35.556Z,93.80
2018-03-24T02:32:38.295Z,93.80
2018-03-24T02:34:40.944Z,93.70
2018-03-24T02:36:43.562Z,93.60
2018-03-24T02:38:46.181Z,93.60
2018-03-24T02:40:48.877Z,93.80
2018-03-24T02:42:52.261Z,94.10
2018-03-24T02:44:55.695Z,93.80
2018-03-24T02:46:58.393Z,93.80
2018-03-24T02:49:01.053Z,93.90
2018-03-24T02:51:03.661Z,94.00
2018-03-24T02:53:06.320Z,93.70
2018-03-24T02:55:08.957Z,93.90
2018-03-24T02:57:11.650Z,93.90
2018-03-24T02:59:14.356Z,93.80
2018-03-24T03:01:17.787Z,94.20
2018-03-24T03:03:21.205Z,93.80
2018-03-24T03:05:23.888Z,93.80
2018-03-24T03:07:27.258Z,93.90
2018-03-24T03:09:29.933Z,93.90
2018-03-24T03:11:32.579Z,93.80
2018-03-24T03:13:35.205Z,94.00
2018-03-24T03:15:37.963Z,93.80
2018-03-24T03:17:40.610Z,93.50
2018-03-24T03:19:43.283Z,93.50
2018-03-24T03:21:54.689Z,93.60
2018-03-24T03:23:57.331Z,93.30
2018-03-24T03:25:59.991Z,93.20
2018-03-24T03:28:02.656Z,93.40
2018-03-24T03:30:05.233Z,92.90
2018-03-24T03:32:08.226Z,93.10
2018-03-24T03:34:10.881Z,93.30
2018-03-24T03:36:13.598Z,93.00
2018-03-24T03:38:16.202Z,93.00
2018-03-24T03:40:18.835Z,93.10
2018-03-24T03:42:21.483Z,93.20
2018-03-24T03:44:24.125Z,92.60
2018-03-24T03:46:27.545Z,93.00
2018-03-24T03:48:30.233Z,93.00
2018-03-24T03:50:33.718Z,92.90
2018-03-24T03:52:36.352Z,92.90
2018-03-24T03:54:39.006Z,93.10
2018-03-24T03:56:41.694Z,93.00
2018-03-24T03:58:44.337Z,93.10
2018-03-24T04:00:46.986Z,93.00
2018-03-24T04:02:49.614Z,93.00
2018-03-24T04:04:53.753Z,93.00
2018-03-24T04:06:57.149Z,93.10
2018-03-24T04:09:00.535Z,93.50
2018-03-24T04:11:03.926Z,93.80
2018-03-24T04:13:07.315Z,93.50
2018-03-24T04:15:10.718Z,93.10
2018-03-24T04:17:14.132Z,92.80
2018-03-24T04:19:16.746Z,92.80
2018-03-24T04:21:20.147Z,93.00
2018-03-24T04:23:22.846Z,93.00
2018-03-24T04:25:25.539Z,92.50
2018-03-24T04:27:28.914Z,92.90
2018-03-24T04:29:32.308Z,92.70
2018-03-24T04:31:35.711Z,92.40
2018-03-24T04:33:39.108Z,92.90
2018-03-24T04:35:42.545Z,92.60
2018-03-24T04:37:45.158Z,92.60
2018-03-24T04:39:47.801Z,92.80
2018-03-24T04:41:50.446Z,92.80
2018-03-24T04:43:53.082Z,92.80
2018-03-24T04:45:55.710Z,92.70
2018-03-24T04:47:58.339Z,92.90
2018-03-24T04:50:01.765Z,92.90
2018-03-24T04:52:04.409Z,92.90
2018-03-24T04:54:07.820Z,92.80
2018-03-24T04:56:11.185Z,92.70
2018-03-24T04:58:13.870Z,92.70
2018-03-24T05:00:16.504Z,93.20
2018-03-24T05:02:19.158Z,92.90
2018-03-24T05:04:21.777Z,93.00
2018-03-24T05:06:24.444Z,93.30
2018-03-24T05:08:27.097Z,93.20
2018-03-24T05:10:29.737Z,93.10
2018-03-24T05:12:32.393Z,93.30
2018-03-24T05:14:35.069Z,92.80
2018-03-24T05:16:37.683Z,93.00
2018-03-24T05:18:40.309Z,93.00
2018-03-24T05:20:42.969Z,93.10
2018-03-24T05:22:45.814Z,92.60
2018-03-24T05:24:48.444Z,92.80
2018-03-24T05:26:51.090Z,92.90
2018-03-24T05:28:53.729Z,92.80
2018-03-24T05:30:56.418Z,92.70
2018-03-24T05:32:59.067Z,92.60
2018-03-24T05:35:02.494Z,92.20
2018-03-24T05:37:05.198Z,92.10
2018-03-24T05:39:08.009Z,92.20
2018-03-24T05:41:10.612Z,92.60
2018-03-24T05:43:13.581Z,92.50
2018-03-24T05:45:16.966Z,92.30
2018-03-24T05:47:19.683Z,92.30
2018-03-24T05:49:22.535Z,92.30
2018-03-24T05:51:25.380Z,92.40
2018-03-24T05:53:28.019Z,92.30
2018-03-24T05:55:30.662Z,92.40
2018-03-24T05:57:34.078Z,92.30
2018-03-24T05:59:36.753Z,92.30
2018-03-24T06:01:39.389Z,92.20
2018-03-24T06:03:42.036Z,92.50
2018-03-24T06:05:44.687Z,93.30
2018-03-24T06:07:47.601Z,92.90
2018-03-24T06:09:50.357Z,93.00
2018-03-24T06:11:53.010Z,93.00
2018-03-24T06:13:55.621Z,93.20
2018-03-24T06:15:58.252Z,93.10
2018-03-24T06:18:00.896Z,93.00
2018-03-24T06:20:03.534Z,92.80
2018-03-24T06:22:06.195Z,93.20
2018-03-24T06:24:08.827Z,93.10
2018-03-24T06:26:11.545Z,93.10
2018-03-24T06:28:14.191Z,93.20
2018-03-24T06:30:33.288Z,93.20
2018-03-24T06:32:35.899Z,93.20
2018-03-24T06:34:38.514Z,93.50
2018-03-24T06:36:57.574Z,94.30
2018-03-24T06:39:01.018Z,95.00
2018-03-24T06:41:03.623Z,94.90
2018-03-24T06:43:06.235Z,95.20
2018-03-24T06:45:09.623Z,95.60
2018-03-24T06:47:12.257Z,95.60
2018-03-24T06:49:14.882Z,96.20
2018-03-24T06:51:17.487Z,96.50
2018-03-24T06:53:20.093Z,96.40
2018-03-24T06:55:22.740Z,96.60
2018-03-24T06:57:25.340Z,96.90
2018-03-24T06:59:27.951Z,96.90
2018-03-24T07:01:30.559Z,96.90
2018-03-24T07:03:33.225Z,96.90
2018-03-24T07:05:35.855Z,97.00
2018-03-24T07:07:39.228Z,97.20
2018-03-24T07:09:41.859Z,97.20
2018-03-24T07:11:44.488Z,97.10
2018-03-24T07:13:47.882Z,97.00
2018-03-24T07:15:50.548Z,96.90
2018-03-24T07:17:53.161Z,97.30
2018-03-24T07:19:55.925Z,97.30
2018-03-24T07:21:58.995Z,97.30
2018-03-24T07:24:01.790Z,97.10
2018-03-24T07:26:04.667Z,97.10
2018-03-24T07:28:07.802Z,96.90
2018-03-24T07:30:10.491Z,96.80
2018-03-24T07:32:14.340Z,96.90
2018-03-24T07:34:18.098Z,96.50
2018-03-24T07:36:22.035Z,96.40
2018-03-24T07:38:25.323Z,96.40
2018-03-24T07:40:30.277Z,96.00
2018-03-24T07:42:33.169Z,96.00
2018-03-24T07:44:36.273Z,95.80
2018-03-24T07:46:39.806Z,95.90
2018-03-24T07:48:42.524Z,95.80
2018-03-24T07:50:46.005Z,95.60
2018-03-24T07:52:49.490Z,95.10
2018-03-24T07:54:52.870Z,94.50
2018-03-24T07:56:55.547Z,94.50
2018-03-24T07:58:58.183Z,94.90
2018-03-24T08:01:00.801Z,94.90
2018-03-24T08:03:03.474Z,95.10
2018-03-24T08:05:06.157Z,95.00
2018-03-24T08:07:08.784Z,94.90
2018-03-24T08:09:11.426Z,95.10
2018-03-24T08:11:14.811Z,95.00
2018-03-24T08:13:18.306Z,95.30
2018-03-24T08:15:21.678Z,95.40
2018-03-24T08:17:24.286Z,95.40
2018-03-24T08:19:26.916Z,95.30
2018-03-24T08:21:29.521Z,95.20
2018-03-24T08:23:32.908Z,95.20
2018-03-24T08:25:36.312Z,95.10
2018-03-24T08:27:39.049Z,95.10
2018-03-24T08:29:41.677Z,95.20
2018-03-24T08:31:44.287Z,95.10
2018-03-24T08:33:46.911Z,95.40
2018-03-24T08:35:49.562Z,95.20
2018-03-24T08:37:52.170Z,94.70
2018-03-24T08:39:54.800Z,94.40
2018-03-24T08:41:57.465Z,94.40
2018-03-24T08:44:00.210Z,94.10
2018-03-24T08:46:04.226Z,94.10
2018-03-24T08:48:06.828Z,93.80
2018-03-24T08:50:17.685Z,93.80
2018-03-24T08:52:21.182Z,93.60
2018-03-24T08:54:23.786Z,93.20
2018-03-24T08:56:26.431Z,92.90
2018-03-24T08:58:29.218Z,93.10
2018-03-24T09:00:31.821Z,93.00
2018-03-24T09:02:34.461Z,93.00
2018-03-24T09:04:38.090Z,92.90
2018-03-24T09:06:57.981Z,92.90
2018-03-24T09:09:00.606Z,92.40
2018-03-24T09:11:03.296Z,91.90
2018-03-24T09:13:05.888Z,91.40
2018-03-24T09:15:08.535Z,90.10
2018-03-24T09:17:11.203Z,90.20
2018-03-24T09:19:13.817Z,90.00
2018-03-24T09:21:18.087Z,90.20
2018-03-24T09:23:20.712Z,90.30
2018-03-24T09:25:23.355Z,87.20
2018-03-24T09:27:25.985Z,87.80
2018-03-24T09:29:29.373Z,86.10
2018-03-24T09:31:31.990Z,86.00
2018-03-24T09:33:34.682Z,85.40
2018-03-24T09:35:37.283Z,85.70
2018-03-24T09:37:39.917Z,85.00
2018-03-24T09:39:42.545Z,84.40
2018-03-24T09:41:45.165Z,82.50
2018-03-24T09:43:47.811Z,81.70
2018-03-24T09:45:51.961Z,83.60
2018-03-24T09:47:55.386Z,80.20
2018-03-24T09:49:58.057Z,80.10
2018-03-24T09:52:00.704Z,81.40
2018-03-24T09:54:03.366Z,80.70
2018-03-24T09:56:07.558Z,78.30
2018-03-24T09:58:10.957Z,78.60
2018-03-24T10:00:13.585Z,78.50
2018-03-24T10:02:16.189Z,78.50
2018-03-24T10:04:19.662Z,78.90
2018-03-24T10:06:23.978Z,78.80
2018-03-24T10:08:28.804Z,77.00
2018-03-24T10:10:34.966Z,77.60
2018-03-24T10:12:43.057Z,78.10
2018-03-24T10:14:47.254Z,75.10
2018-03-24T10:16:52.571Z,75.40
2018-03-24T10:18:58.679Z,75.80
2018-03-24T10:21:22.697Z,73.10
2018-03-24T10:23:35.314Z,73.40
2018-03-24T10:25:38.416Z,75.70
2018-03-24T10:27:41.394Z,73.30
2018-03-24T10:29:44.175Z,73.50
2018-03-24T10:31:47.019Z,70.50
2018-03-24T10:34:07.526Z,68.50
2018-03-24T10:36:15.536Z,69.70
2018-03-24T10:38:18.410Z,69.80
2018-03-24T10:40:21.147Z,71.40
2018-03-24T10:42:23.786Z,71.80
2018-03-24T10:44:26.389Z,73.50
2018-03-24T10:46:29.083Z,75.50
2018-03-24T10:48:31.748Z,74.60
2018-03-24T10:50:34.358Z,75.60
2018-03-24T10:52:37.781Z,74.30
2018-03-24T10:54:40.514Z,74.30
2018-03-24T10:56:43.910Z,74.30
2018-03-24T10:58:47.551Z,74.00
2018-03-24T11:00:55.862Z,74.30
2018-03-24T11:02:58.506Z,75.30
2018-03-24T11:05:01.916Z,75.20
2018-03-24T11:07:04.528Z,75.10
2018-03-24T11:09:07.149Z,75.10
2018-03-24T11:11:10.540Z,73.80
2018-03-24T11:13:14.015Z,73.60
2018-03-24T11:15:16.666Z,73.50
2018-03-24T11:17:19.329Z,74.10
2018-03-24T11:19:22.914Z,75.00
2018-03-24T11:21:25.526Z,74.00
2018-03-24T11:23:28.119Z,73.80
2018-03-24T11:25:30.765Z,74.20
2018-03-24T11:27:33.350Z,76.20
2018-03-24T11:29:35.965Z,74.30
2018-03-24T11:31:39.343Z,75.80
2018-03-24T11:33:42.767Z,74.10
2018-03-24T11:35:45.440Z,73.90
2018-03-24T11:37:48.118Z,75.90
2018-03-24T11:39:50.750Z,73.20
2018-03-24T11:41:53.350Z,73.80
2018-03-24T11:43:56.735Z,73.80
2018-03-24T11:46:00.143Z,73.60
2018-03-24T11:48:02.780Z,73.60
2018-03-24T11:50:05.437Z,73.20
2018-03-24T11:52:08.031Z,71.10
2018-03-24T11:54:10.624Z,70.10
2018-03-24T11:56:14.066Z,71.70
2018-03-24T11:58:17.413Z,72.10
2018-03-24T12:00:20.834Z,70.70
2018-03-24T12:02:23.490Z,70.60
2018-03-24T12:04:26.866Z,70.20
2018-03-24T12:06:29.510Z,70.10
2018-03-24T12:08:32.196Z,70.40
2018-03-24T12:10:34.823Z,70.70
2018-03-24T12:12:37.431Z,71.20
2018-03-24T12:14:40.042Z,70.30
2018-03-24T12:16:42.685Z,72.40
2018-03-24T12:18:45.317Z,72.00
2018-03-24T12:20:48.747Z,70.10
2018-03-24T12:22:51.418Z,70.00
2018-03-24T12:24:54.059Z,72.10
2018-03-24T12:26:57.461Z,67.90
2018-03-24T12:29:00.125Z,68.00
2018-03-24T12:31:03.731Z,69.20
2018-03-24T12:33:06.349Z,69.20
2018-03-24T12:35:08.960Z,67.10
2018-03-24T12:37:11.575Z,67.30
2018-03-24T12:39:14.215Z,67.30
2018-03-24T12:41:17.593Z,68.30
2018-03-24T12:43:20.239Z,67.70
2018-03-24T12:45:22.947Z,66.30
2018-03-24T12:47:25.561Z,65.10
2018-03-24T12:49:28.186Z,66.50
2018-03-24T12:51:30.786Z,67.20
2018-03-24T12:53:34.183Z,69.20
2018-03-24T12:55:37.654Z,65.70
2018-03-24T12:57:41.203Z,65.20
2018-03-24T12:59:43.842Z,65.00
2018-03-24T13:01:46.524Z,64.50
2018-03-24T13:03:49.972Z,66.20
2018-03-24T13:05:52.683Z,66.20
2018-03-24T13:07:55.302Z,64.70
2018-03-24T13:09:57.953Z,65.30
2018-03-24T13:12:01.349Z,59.90
2018-03-24T13:14:04.713Z,61.60
2018-03-24T13:16:07.341Z,61.10
2018-03-24T13:18:11.622Z,60.80
2018-03-24T13:20:14.992Z,59.50
2018-03-24T13:22:17.617Z,59.40
2018-03-24T13:24:20.238Z,59.60
2018-03-24T13:26:22.982Z,59.60
2018-03-24T13:28:25.656Z,60.10
2018-03-24T13:30:28.346Z,59.50
2018-03-24T13:32:31.850Z,60.10
2018-03-24T13:34:34.471Z,60.10
2018-03-24T13:36:37.844Z,60.00
2018-03-24T13:38:40.496Z,60.00
2018-03-24T13:40:43.106Z,58.70
2018-03-24T13:42:47.259Z,59.30
2018-03-24T13:44:50.174Z,58.80
2018-03-24T13:46:52.843Z,60.90
2018-03-24T13:48:56.252Z,60.70
2018-03-24T13:50:58.862Z,60.70
2018-03-24T13:53:02.685Z,60.90
2018-03-24T13:55:05.338Z,60.90
2018-03-24T13:57:08.707Z,60.10
2018-03-24T13:59:11.387Z,60.10
2018-03-24T14:01:14.753Z,60.80
2018-03-24T14:03:17.387Z,60.80
2018-03-24T14:05:20.686Z,60.90
2018-03-24T14:07:23.362Z,61.50
2018-03-24T14:09:25.974Z,61.20
2018-03-24T14:11:28.635Z,61.40
2018-03-24T14:13:31.250Z,60.70
2018-03-24T14:15:33.897Z,61.80
2018-03-24T14:17:37.729Z,62.10
2018-03-24T14:19:40.338Z,63.50
2018-03-24T14:21:42.948Z,63.30
2018-03-24T14:23:45.644Z,64.50
2018-03-24T14:25:48.217Z,65.00
2018-03-24T14:27:50.838Z,63.30
2018-03-24T14:29:53.546Z,64.90
2018-03-24T14:31:56.170Z,63.70
2018-03-24T14:33:59.561Z,63.90
2018-03-24T14:36:02.922Z,63.70
2018-03-24T14:38:05.518Z,63.60
2018-03-24T14:40:09.240Z,64.80
2018-03-24T14:42:11.966Z,65.30
2018-03-24T14:44:14.613Z,65.20
2018-03-24T14:46:17.319Z,65.70
2018-03-24T14:48:19.930Z,66.40
2018-03-24T14:50:23.304Z,64.90
2018-03-24T14:52:25.935Z,64.90
2018-03-24T14:54:28.554Z,65.30
2018-03-24T14:56:31.178Z,66.10
2018-03-24T14:58:33.822Z,66.30
2018-03-24T15:00:37.238Z,64.20
2018-03-24T15:02:39.846Z,64.10
2018-03-24T15:04:42.474Z,63.70
2018-03-24T15:06:45.828Z,66.00
2018-03-24T15:08:48.505Z,65.90
2018-03-24T15:10:51.151Z,65.50
2018-03-24T15:12:54.523Z,65.90
2018-03-24T15:14:57.744Z,65.90
2018-03-24T15:17:00.377Z,65.00
2018-03-24T15:19:03.019Z,64.60
2018-03-24T15:21:05.653Z,64.60
2018-03-24T15:23:09.114Z,64.50
2018-03-24T15:25:12.575Z,63.60
2018-03-24T15:27:15.185Z,63.50
2018-03-24T15:29:30.344Z,64.10
2018-03-24T15:31:44.639Z,64.00
2018-03-24T15:33:59.001Z,64.90
2018-03-24T15:36:13.434Z,64.00
2018-03-24T15:38:16.069Z,64.00
2018-03-24T15:40:18.700Z,63.20
2018-03-24T15:42:21.374Z,64.60
2018-03-24T15:44:23.980Z,64.10
2018-03-24T15:46:26.621Z,62.30
2018-03-24T15:48:29.235Z,62.80
2018-03-24T15:50:31.882Z,63.10
2018-03-24T15:52:34.563Z,64.10
2018-03-24T15:54:37.179Z,64.40
2018-03-24T15:56:40.601Z,63.80
2018-03-24T15:58:43.264Z,63.60
2018-03-24T16:00:46.643Z,62.50
2018-03-24T16:02:49.266Z,62.40
2018-03-24T16:04:51.910Z,62.70
2018-03-24T16:06:55.302Z,64.50
2018-03-24T16:08:58.730Z,63.60
2018-03-24T16:11:01.388Z,63.60
2018-03-24T16:13:03.994Z,64.50
2018-03-24T16:15:06.649Z,65.00
2018-03-24T16:17:09.251Z,65.30
2018-03-24T16:19:11.847Z,65.30
2018-03-24T16:21:14.505Z,64.20
2018-03-24T16:23:17.172Z,64.60
2018-03-24T16:25:19.773Z,65.40
2018-03-24T16:27:22.447Z,64.80
2018-03-24T16:29:25.882Z,65.60
2018-03-24T16:31:28.511Z,65.50
2018-03-24T16:33:31.189Z,65.30
2018-03-24T16:35:33.781Z,66.20
2018-03-24T16:37:36.528Z,66.30
2018-03-24T16:39:39.284Z,66.60
2018-03-24T16:41:41.958Z,66.60
2018-03-24T16:43:44.630Z,66.50
2018-03-24T16:45:47.233Z,67.10
2018-03-24T16:47:49.915Z,67.20
2018-03-24T16:49:52.554Z,67.00
2018-03-24T16:51:55.244Z,67.10
2018-03-24T16:53:57.880Z,67.30
2018-03-24T16:56:01.275Z,68.40
2018-03-24T16:58:04.658Z,67.80
2018-03-24T17:00:08.085Z,68.70
2018-03-24T17:02:11.462Z,69.30
2018-03-24T17:04:14.343Z,68.70
2018-03-24T17:06:16.995Z,68.80
2018-03-24T17:08:19.618Z,69.70
2018-03-24T17:10:22.272Z,68.50
2018-03-24T17:12:24.910Z,69.00
2018-03-24T17:14:27.539Z,69.10
2018-03-24T17:16:30.195Z,69.80
2018-03-24T17:18:32.881Z,69.60
2018-03-24T17:20:35.535Z,70.00
2018-03-24T17:22:38.142Z,69.20
2018-03-24T17:24:40.781Z,71.10
2018-03-24T17:26:44.170Z,70.60
2018-03-24T17:28:46.803Z,70.60
2018-03-24T17:30:49.530Z,70.90
2018-03-24T17:32:52.919Z,71.60
2018-03-24T17:34:55.520Z,71.50
2018-03-24T17:36:58.187Z,71.20
2018-03-24T17:39:00.844Z,70.90
2018-03-24T17:41:03.474Z,72.10
2018-03-24T17:43:06.106Z,72.30
2018-03-24T17:45:09.520Z,72.80
2018-03-24T17:47:12.165Z,72.80
2018-03-24T17:49:14.780Z,73.40
2018-03-24T17:51:17.401Z,73.30
2018-03-24T17:53:20.039Z,73.50
2018-03-24T17:55:23.499Z,74.00
2018-03-24T17:57:26.219Z,74.00
2018-03-24T17:59:28.819Z,73.50
2018-03-24T18:01:31.442Z,74.50
2018-03-24T18:03:34.371Z,74.10
2018-03-24T18:05:37.039Z,74.30
2018-03-24T18:07:39.745Z,74.30
2018-03-24T18:09:42.413Z,75.00
2018-03-24T18:11:45.134Z,74.40
2018-03-24T18:13:47.872Z,75.20
2018-03-24T18:15:51.339Z,75.40
2018-03-24T18:17:53.984Z,75.40
2018-03-24T18:19:56.642Z,75.10
2018-03-24T18:21:59.280Z,74.50
2018-03-24T18:24:01.905Z,74.90
2018-03-24T18:26:04.590Z,75.00
2018-03-24T18:28:07.248Z,75.40
2018-03-24T18:30:09.821Z,75.40
2018-03-24T18:32:13.210Z,75.60
2018-03-24T18:34:16.625Z,76.60
2018-03-24T18:36:19.254Z,76.60
2018-03-24T18:38:21.911Z,76.30
2018-03-24T18:40:24.546Z,76.30
2018-03-24T18:42:27.194Z,75.90
2018-03-24T18:44:29.823Z,75.90
2018-03-24T18:46:32.484Z,75.90
2018-03-24T18:48:35.099Z,76.90
2018-03-24T18:50:37.734Z,76.60
2018-03-24T18:52:40.402Z,76.40
2018-03-24T18:54:43.042Z,76.40
2018-03-24T18:56:46.480Z,76.70
2018-03-24T18:58:49.131Z,76.70
2018-03-24T19:00:51.796Z,77.60
2018-03-24T19:02:55.189Z,77.80
2018-03-24T19:04:58.601Z,78.10
2018-03-24T19:07:01.211Z,78.10
2018-03-24T19:09:03.879Z,79.00
2018-03-24T19:11:06.557Z,78.60
2018-03-24T19:13:09.222Z,78.70
2018-03-24T19:15:12.053Z,79.10
2018-03-24T19:17:14.766Z,79.30
2018-03-24T19:19:17.448Z,79.10
2018-03-24T19:21:20.086Z,78.90
2018-03-24T19:23:22.718Z,78.50
2018-03-24T19:25:25.410Z,79.00
2018-03-24T19:27:28.051Z,80.00
2018-03-24T19:29:30.726Z,80.20
2018-03-24T19:31:34.149Z,80.90
2018-03-24T19:33:36.789Z,80.90
2018-03-24T19:35:39.507Z,80.70
2018-03-24T19:37:42.154Z,80.70
2018-03-24T19:39:44.815Z,81.30
2018-03-24T19:41:48.241Z,82.00
2018-03-24T19:43:50.852Z,81.90
2018-03-24T19:45:53.503Z,81.80
2018-03-24T19:47:56.207Z,82.30
2018-03-24T19:49:59.612Z,82.80
2018-03-24T19:52:03.074Z,82.50
2018-03-24T19:54:05.691Z,82.50
2018-03-24T19:56:09.075Z,83.30
2018-03-24T19:58:12.482Z,83.00
2018-03-24T20:00:15.951Z,83.20
2018-03-24T20:02:18.596Z,83.20
2018-03-24T20:04:21.258Z,83.20
2018-03-24T20:06:23.869Z,83.00
2018-03-24T20:08:26.495Z,83.10
2018-03-24T20:10:29.115Z,83.70
2018-03-24T20:12:31.856Z,83.70
2018-03-24T20:14:34.478Z,83.30
2018-03-24T20:16:37.747Z,83.60
2018-03-24T20:18:40.542Z,83.50
2018-03-24T20:20:43.185Z,83.80
2018-03-24T20:22:45.791Z,83.90
2018-03-24T20:24:48.473Z,84.10
2018-03-24T20:26:51.910Z,83.70
2018-03-24T20:28:54.523Z,83.60
2018-03-24T20:30:57.197Z,84.20
2018-03-24T20:32:59.862Z,84.60
2018-03-24T20:35:02.517Z,84.40
2018-03-24T20:37:05.138Z,84.70
2018-03-24T20:39:07.759Z,84.20
2018-03-24T20:41:10.734Z,84.10
2018-03-24T20:43:13.375Z,83.80
2018-03-24T20:45:16.059Z,84.70
2018-03-24T20:47:18.686Z,85.10
2018-03-24T20:49:21.348Z,85.30
2018-03-24T20:51:23.960Z,85.80
2018-03-24T20:53:27.009Z,85.90
2018-03-24T20:55:29.840Z,86.10
2018-03-24T20:57:32.563Z,86.50
2018-03-24T20:59:35.233Z,86.40
2018-03-24T21:01:38.603Z,86.60
2018-03-24T21:03:41.239Z,86.50
2018-03-24T21:05:43.889Z,86.90
2018-03-24T21:07:46.598Z,87.10
2018-03-24T21:09:49.219Z,87.50
2018-03-24T21:11:51.837Z,87.60
2018-03-24T21:13:54.597Z,87.80
2018-03-24T21:15:57.205Z,87.60
2018-03-24T21:17:59.830Z,87.70
2018-03-24T21:20:03.280Z,87.40
2018-03-24T21:22:06.006Z,87.30
2018-03-24T21:24:08.638Z,87.60
2018-03-24T21:26:11.261Z,87.00
2018-03-24T21:28:13.939Z,87.60
2018-03-24T21:30:16.566Z,87.00
2018-03-24T21:32:19.186Z,87.30
2018-03-24T21:34:21.848Z,87.50
2018-03-24T21:36:25.238Z,87.50
2018-03-24T21:38:28.646Z,87.60
2018-03-24T21:40:31.278Z,87.60
2018-03-24T21:42:33.903Z,87.90
2018-03-24T21:44:36.511Z,87.80
2018-03-24T21:46:39.145Z,88.10
2018-03-24T21:48:41.770Z,88.40
2018-03-24T21:50:44.445Z,88.50
2018-03-24T21:52:47.039Z,88.30
2018-03-24T21:54:49.654Z,88.10
2018-03-24T21:56:52.290Z,87.80
2018-03-24T21:58:54.934Z,88.10
2018-03-24T22:00:57.549Z,87.70
2018-03-24T22:03:00.966Z,87.50
2018-03-24T22:05:03.582Z,87.50
2018-03-24T22:07:06.982Z,88.70
2018-03-24T22:09:09.607Z,88.60
2018-03-24T22:11:13.003Z,88.10
2018-03-24T22:13:16.404Z,88.30
2018-03-24T22:15:19.007Z,88.20
2018-03-24T22:17:21.632Z,87.50
2018-03-24T22:19:24.278Z,87.40
2018-03-24T22:21:26.965Z,87.70
2018-03-24T22:23:29.616Z,88.40
2018-03-24T22:25:32.257Z,87.60
2018-03-24T22:27:34.867Z,87.50
2018-03-24T22:29:37.583Z,87.60
2018-03-24T22:31:40.989Z,87.80
2018-03-24T22:33:44.440Z,87.70
2018-03-24T22:35:47.214Z,87.70
2018-03-24T22:37:49.841Z,87.90
2018-03-24T22:39:52.470Z,87.10
2018-03-24T22:41:55.078Z,87.80
2018-03-24T22:43:58.518Z,88.30
2018-03-24T22:46:01.238Z,88.40
2018-03-24T22:48:03.840Z,88.00
2018-03-24T22:50:06.495Z,87.90
2018-03-24T22:52:09.248Z,88.40
2018-03-24T22:54:11.872Z,88.30
2018-03-24T22:56:14.506Z,88.50
2018-03-24T22:58:17.125Z,88.00
2018-03-24T23:00:19.750Z,88.60
2018-03-24T23:02:22.358Z,88.30
2018-03-24T23:04:24.982Z,88.60
2018-03-24T23:06:27.710Z,88.80
2018-03-24T23:08:31.163Z,88.70
2018-03-24T23:10:33.783Z,89.40
2018-03-24T23:12:36.431Z,88.60
2018-03-24T23:14:39.067Z,88.80
2018-03-24T23:16:41.715Z,88.60
2018-03-24T23:18:45.074Z,88.80
2018-03-24T23:20:47.817Z,88.70
2018-03-24T23:22:50.433Z,89.00
2018-03-24T23:24:53.040Z,88.20
2018-03-24T23:26:55.680Z,88.40
2018-03-24T23:28:58.306Z,88.10
2018-03-24T23:31:00.945Z,88.50
2018-03-24T23:33:04.339Z,89.30
2018-03-24T23:35:07.709Z,90.10
2018-03-24T23:37:11.162Z,89.70
2018-03-24T23:39:13.785Z,89.70
2018-03-24T23:41:16.452Z,90.00
2018-03-24T23:43:19.128Z,89.80
2018-03-24T23:45:22.514Z,90.00
2018-03-24T23:47:25.119Z,90.00
2018-03-24T23:49:27.722Z,90.10
2018-03-24T23:51:31.097Z,90.20
2018-03-24T23:53:33.759Z,90.20
2018-03-24T23:55:36.390Z,90.20
2018-03-24T23:57:39.027Z,90.10
2018-03-24T23:59:42.422Z,89.50
